sensor_id;sensor_type;location;lat;lon;timestamp;temperature;humidity
27413;DHT22;14871;52.702;5.230;2022-08-19T00:01:18;22.10;99.90
27413;DHT22;14871;52.702;5.230;2022-08-19T00:03:44;22.00;99.90
27413;DHT22;14871;52.702;5.230;2022-08-19T00:06:09;22.10;99.90
27413;DHT22;14871;52.702;5.230;2022-08-19T00:08:35;22.00;99.90
27413;DHT22;14871;52.702;5.230;2022-08-19T00:11:01;22.10;99.90
27413;DHT22;14871;52.702;5.230;2022-08-19T00:13:27;22.00;99.90
27413;DHT22;14871;52.702;5.230;2022-08-19T00:15:54;22.00;99.90
27413;DHT22;14871;52.702;5.230;2022-08-19T00:18:20;22.00;99.90
27413;DHT22;14871;52.702;5.230;2022-08-19T00:20:45;21.90;99.90
27413;DHT22;14871;52.702;5.230;2022-08-19T00:23:11;22.00;99.90
27413;DHT22;14871;52.702;5.230;2022-08-19T00:25:37;21.90;99.90
27413;DHT22;14871;52.702;5.230;2022-08-19T00:28:03;21.90;99.90
27413;DHT22;14871;52.702;5.230;2022-08-19T00:30:30;21.90;99.90
27413;DHT22;14871;52.702;5.230;2022-08-19T00:32:56;21.80;99.90
27413;DHT22;14871;52.702;5.230;2022-08-19T00:35:22;21.70;99.90
27413;DHT22;14871;52.702;5.230;2022-08-19T00:37:49;21.60;99.90
27413;DHT22;14871;52.702;5.230;2022-08-19T00:40:15;21.80;99.90
27413;DHT22;14871;52.702;5.230;2022-08-19T00:42:41;21.70;99.90
27413;DHT22;14871;52.702;5.230;2022-08-19T00:45:20;21.70;99.90
27413;DHT22;14871;52.702;5.230;2022-08-19T00:47:46;21.70;99.90
27413;DHT22;14871;52.702;5.230;2022-08-19T00:50:15;21.70;99.90
27413;DHT22;14871;52.702;5.230;2022-08-19T00:52:44;21.80;99.90
27413;DHT22;14871;52.702;5.230;2022-08-19T00:55:19;21.70;99.90
27413;DHT22;14871;52.702;5.230;2022-08-19T00:58:07;21.70;99.90
27413;DHT22;14871;52.702;5.230;2022-08-19T01:00:34;21.60;99.90
27413;DHT22;14871;52.702;5.230;2022-08-19T01:03:09;21.60;99.90
27413;DHT22;14871;52.702;5.230;2022-08-19T01:05:36;21.50;99.90
27413;DHT22;14871;52.702;5.230;2022-08-19T01:08:04;21.60;99.90
27413;DHT22;14871;52.702;5.230;2022-08-19T01:10:35;21.60;99.90
27413;DHT22;14871;52.702;5.230;2022-08-19T01:13:03;21.60;99.90
27413;DHT22;14871;52.702;5.230;2022-08-19T01:15:32;21.50;99.90
27413;DHT22;14871;52.702;5.230;2022-08-19T01:18:04;21.50;99.90
27413;DHT22;14871;52.702;5.230;2022-08-19T01:20:31;21.50;99.90
27413;DHT22;14871;52.702;5.230;2022-08-19T01:22:58;21.50;99.90
27413;DHT22;14871;52.702;5.230;2022-08-19T01:25:47;21.50;99.90
27413;DHT22;14871;52.702;5.230;2022-08-19T01:28:20;21.50;99.90
27413;DHT22;14871;52.702;5.230;2022-08-19T01:30:47;21.60;99.90
27413;DHT22;14871;52.702;5.230;2022-08-19T01:33:13;21.60;99.90
27413;DHT22;14871;52.702;5.230;2022-08-19T01:35:40;21.70;99.90
27413;DHT22;14871;52.702;5.230;2022-08-19T01:38:09;21.70;99.90
27413;DHT22;14871;52.702;5.230;2022-08-19T01:40:39;21.60;99.90
27413;DHT22;14871;52.702;5.230;2022-08-19T01:43:05;21.60;99.90
27413;DHT22;14871;52.702;5.230;2022-08-19T01:45:32;21.50;99.90
27413;DHT22;14871;52.702;5.230;2022-08-19T01:47:59;21.50;99.90
27413;DHT22;14871;52.702;5.230;2022-08-19T01:50:25;21.50;99.90
27413;DHT22;14871;52.702;5.230;2022-08-19T01:52:52;21.40;99.90
27413;DHT22;14871;52.702;5.230;2022-08-19T01:55:20;21.50;99.90
27413;DHT22;14871;52.702;5.230;2022-08-19T01:57:52;21.50;99.90
27413;DHT22;14871;52.702;5.230;2022-08-19T02:00:22;21.50;99.90
27413;DHT22;14871;52.702;5.230;2022-08-19T02:02:48;21.40;99.90
27413;DHT22;14871;52.702;5.230;2022-08-19T02:05:14;21.40;99.90
27413;DHT22;14871;52.702;5.230;2022-08-19T02:07:44;21.40;99.90
27413;DHT22;14871;52.702;5.230;2022-08-19T02:10:13;21.50;99.90
27413;DHT22;14871;52.702;5.230;2022-08-19T02:12:39;21.40;99.90
27413;DHT22;14871;52.702;5.230;2022-08-19T02:15:05;21.40;99.90
27413;DHT22;14871;52.702;5.230;2022-08-19T02:17:31;21.30;99.90
27413;DHT22;14871;52.702;5.230;2022-08-19T02:19:57;21.50;99.90
27413;DHT22;14871;52.702;5.230;2022-08-19T02:22:24;21.50;99.90
27413;DHT22;14871;52.702;5.230;2022-08-19T02:24:54;21.50;99.90
27413;DHT22;14871;52.702;5.230;2022-08-19T02:27:21;21.50;99.90
27413;DHT22;14871;52.702;5.230;2022-08-19T02:29:48;21.50;99.90
27413;DHT22;14871;52.702;5.230;2022-08-19T02:32:14;21.50;99.90
27413;DHT22;14871;52.702;5.230;2022-08-19T02:34:40;21.50;99.90
27413;DHT22;14871;52.702;5.230;2022-08-19T02:37:06;21.50;99.90
27413;DHT22;14871;52.702;5.230;2022-08-19T02:39:51;21.50;99.90
27413;DHT22;14871;52.702;5.230;2022-08-19T02:42:17;21.50;99.90
27413;DHT22;14871;52.702;5.230;2022-08-19T02:44:42;21.50;99.90
27413;DHT22;14871;52.702;5.230;2022-08-19T02:47:09;21.60;99.90
27413;DHT22;14871;52.702;5.230;2022-08-19T02:49:35;21.50;99.90
27413;DHT22;14871;52.702;5.230;2022-08-19T02:52:01;21.50;99.90
27413;DHT22;14871;52.702;5.230;2022-08-19T02:54:26;21.40;99.90
27413;DHT22;14871;52.702;5.230;2022-08-19T02:56:53;21.30;99.90
27413;DHT22;14871;52.702;5.230;2022-08-19T02:59:18;21.50;99.90
27413;DHT22;14871;52.702;5.230;2022-08-19T03:01:45;21.40;99.90
27413;DHT22;14871;52.702;5.230;2022-08-19T03:04:13;21.30;99.90
27413;DHT22;14871;52.702;5.230;2022-08-19T03:06:40;21.30;99.90
27413;DHT22;14871;52.702;5.230;2022-08-19T03:09:06;21.40;99.90
27413;DHT22;14871;52.702;5.230;2022-08-19T03:11:32;21.50;99.90
27413;DHT22;14871;52.702;5.230;2022-08-19T03:13:59;21.40;99.90
27413;DHT22;14871;52.702;5.230;2022-08-19T03:16:26;21.40;99.90
27413;DHT22;14871;52.702;5.230;2022-08-19T03:18:55;21.40;99.90
27413;DHT22;14871;52.702;5.230;2022-08-19T03:21:24;21.40;99.90
27413;DHT22;14871;52.702;5.230;2022-08-19T03:23:50;21.50;99.90
27413;DHT22;14871;52.702;5.230;2022-08-19T03:26:18;21.50;99.90
27413;DHT22;14871;52.702;5.230;2022-08-19T03:28:45;21.50;99.90
27413;DHT22;14871;52.702;5.230;2022-08-19T03:31:16;21.50;99.90
27413;DHT22;14871;52.702;5.230;2022-08-19T03:33:42;21.50;99.90
27413;DHT22;14871;52.702;5.230;2022-08-19T03:36:14;21.40;99.90
27413;DHT22;14871;52.702;5.230;2022-08-19T03:38:45;21.50;99.90
27413;DHT22;14871;52.702;5.230;2022-08-19T03:41:20;21.40;99.90
27413;DHT22;14871;52.702;5.230;2022-08-19T03:43:46;21.30;99.90
27413;DHT22;14871;52.702;5.230;2022-08-19T03:46:15;21.20;99.90
27413;DHT22;14871;52.702;5.230;2022-08-19T03:48:42;21.20;99.90
27413;DHT22;14871;52.702;5.230;2022-08-19T03:51:25;21.30;99.90
27413;DHT22;14871;52.702;5.230;2022-08-19T03:53:53;21.20;99.90
27413;DHT22;14871;52.702;5.230;2022-08-19T03:56:19;21.30;99.90
27413;DHT22;14871;52.702;5.230;2022-08-19T03:58:45;21.30;99.90
27413;DHT22;14871;52.702;5.230;2022-08-19T04:01:17;21.30;99.90
27413;DHT22;14871;52.702;5.230;2022-08-19T04:03:43;21.30;99.90
27413;DHT22;14871;52.702;5.230;2022-08-19T04:08:41;21.30;99.90
27413;DHT22;14871;52.702;5.230;2022-08-19T04:11:13;21.30;99.90
27413;DHT22;14871;52.702;5.230;2022-08-19T04:13:39;21.30;99.90
27413;DHT22;14871;52.702;5.230;2022-08-19T04:16:06;21.20;99.90
27413;DHT22;14871;52.702;5.230;2022-08-19T04:18:33;21.30;99.90
27413;DHT22;14871;52.702;5.230;2022-08-19T04:20:59;21.20;99.90
27413;DHT22;14871;52.702;5.230;2022-08-19T04:23:25;21.20;99.90
27413;DHT22;14871;52.702;5.230;2022-08-19T04:25:50;21.30;99.90
27413;DHT22;14871;52.702;5.230;2022-08-19T04:28:16;21.30;99.90
27413;DHT22;14871;52.702;5.230;2022-08-19T04:30:47;21.40;99.90
27413;DHT22;14871;52.702;5.230;2022-08-19T04:33:15;21.40;99.90
27413;DHT22;14871;52.702;5.230;2022-08-19T04:35:43;21.30;99.90
27413;DHT22;14871;52.702;5.230;2022-08-19T04:38:11;21.30;99.90
27413;DHT22;14871;52.702;5.230;2022-08-19T04:40:45;21.20;99.90
27413;DHT22;14871;52.702;5.230;2022-08-19T04:43:30;21.30;99.90
27413;DHT22;14871;52.702;5.230;2022-08-19T04:45:57;21.30;99.90
27413;DHT22;14871;52.702;5.230;2022-08-19T04:48:23;21.30;99.90
27413;DHT22;14871;52.702;5.230;2022-08-19T04:50:56;21.30;99.90
27413;DHT22;14871;52.702;5.230;2022-08-19T04:53:26;21.40;99.90
27413;DHT22;14871;52.702;5.230;2022-08-19T04:55:57;21.40;99.90
27413;DHT22;14871;52.702;5.230;2022-08-19T04:58:25;21.40;99.90
27413;DHT22;14871;52.702;5.230;2022-08-19T05:00:51;21.50;99.90
27413;DHT22;14871;52.702;5.230;2022-08-19T05:03:17;21.50;99.90
27413;DHT22;14871;52.702;5.230;2022-08-19T05:05:45;21.50;99.90
27413;DHT22;14871;52.702;5.230;2022-08-19T05:08:15;21.60;99.90
27413;DHT22;14871;52.702;5.230;2022-08-19T05:10:46;21.60;99.90
27413;DHT22;14871;52.702;5.230;2022-08-19T05:13:12;21.60;99.90
27413;DHT22;14871;52.702;5.230;2022-08-19T05:15:38;21.60;99.90
27413;DHT22;14871;52.702;5.230;2022-08-19T05:18:04;21.60;99.90
27413;DHT22;14871;52.702;5.230;2022-08-19T05:20:48;21.60;99.90
27413;DHT22;14871;52.702;5.230;2022-08-19T05:23:32;21.60;99.90
27413;DHT22;14871;52.702;5.230;2022-08-19T05:25:57;21.60;99.90
27413;DHT22;14871;52.702;5.230;2022-08-19T05:28:23;21.70;99.90
27413;DHT22;14871;52.702;5.230;2022-08-19T05:30:48;21.70;99.90
27413;DHT22;14871;52.702;5.230;2022-08-19T05:33:16;21.70;99.90
27413;DHT22;14871;52.702;5.230;2022-08-19T05:35:42;21.70;99.90
27413;DHT22;14871;52.702;5.230;2022-08-19T05:38:10;21.70;99.90
27413;DHT22;14871;52.702;5.230;2022-08-19T05:40:37;21.70;99.90
27413;DHT22;14871;52.702;5.230;2022-08-19T05:43:05;21.70;99.90
27413;DHT22;14871;52.702;5.230;2022-08-19T05:45:31;21.70;99.90
27413;DHT22;14871;52.702;5.230;2022-08-19T05:47:57;21.70;99.90
27413;DHT22;14871;52.702;5.230;2022-08-19T05:50:24;21.70;99.90
27413;DHT22;14871;52.702;5.230;2022-08-19T05:52:52;21.60;99.90
27413;DHT22;14871;52.702;5.230;2022-08-19T05:55:17;21.70;99.90
27413;DHT22;14871;52.702;5.230;2022-08-19T05:57:45;21.70;99.90
27413;DHT22;14871;52.702;5.230;2022-08-19T06:00:12;21.80;99.90
27413;DHT22;14871;52.702;5.230;2022-08-19T06:02:38;21.60;99.90
27413;DHT22;14871;52.702;5.230;2022-08-19T06:05:05;21.60;99.90
27413;DHT22;14871;52.702;5.230;2022-08-19T06:07:35;21.70;99.90
27413;DHT22;14871;52.702;5.230;2022-08-19T06:10:00;21.80;99.90
27413;DHT22;14871;52.702;5.230;2022-08-19T06:12:29;21.80;99.90
27413;DHT22;14871;52.702;5.230;2022-08-19T06:15:00;21.90;99.90
27413;DHT22;14871;52.702;5.230;2022-08-19T06:17:26;21.80;99.90
27413;DHT22;14871;52.702;5.230;2022-08-19T06:19:52;21.90;99.90
27413;DHT22;14871;52.702;5.230;2022-08-19T06:22:17;21.80;99.90
27413;DHT22;14871;52.702;5.230;2022-08-19T06:24:43;21.80;99.90
27413;DHT22;14871;52.702;5.230;2022-08-19T06:27:09;21.90;99.90
27413;DHT22;14871;52.702;5.230;2022-08-19T06:29:35;21.90;99.90
27413;DHT22;14871;52.702;5.230;2022-08-19T06:32:02;22.00;99.90
27413;DHT22;14871;52.702;5.230;2022-08-19T06:34:32;22.00;99.90
27413;DHT22;14871;52.702;5.230;2022-08-19T06:37:00;22.00;99.90
27413;DHT22;14871;52.702;5.230;2022-08-19T06:39:31;22.10;99.90
27413;DHT22;14871;52.702;5.230;2022-08-19T06:42:00;22.10;99.90
27413;DHT22;14871;52.702;5.230;2022-08-19T06:44:30;22.10;99.90
27413;DHT22;14871;52.702;5.230;2022-08-19T06:47:05;22.20;99.90
27413;DHT22;14871;52.702;5.230;2022-08-19T06:49:31;22.30;99.90
27413;DHT22;14871;52.702;5.230;2022-08-19T06:51:57;22.40;99.90
27413;DHT22;14871;52.702;5.230;2022-08-19T06:54:25;22.40;99.90
27413;DHT22;14871;52.702;5.230;2022-08-19T06:56:51;22.50;99.90
27413;DHT22;14871;52.702;5.230;2022-08-19T06:59:22;22.50;99.90
27413;DHT22;14871;52.702;5.230;2022-08-19T07:01:53;22.60;99.90
27413;DHT22;14871;52.702;5.230;2022-08-19T07:04:22;22.70;99.90
27413;DHT22;14871;52.702;5.230;2022-08-19T07:06:48;22.70;99.90
27413;DHT22;14871;52.702;5.230;2022-08-19T07:09:17;22.90;99.90
27413;DHT22;14871;52.702;5.230;2022-08-19T07:11:51;23.00;99.90
27413;DHT22;14871;52.702;5.230;2022-08-19T07:14:21;23.10;99.90
27413;DHT22;14871;52.702;5.230;2022-08-19T07:16:49;23.20;99.90
27413;DHT22;14871;52.702;5.230;2022-08-19T07:19:16;23.20;99.90
27413;DHT22;14871;52.702;5.230;2022-08-19T07:21:42;23.20;99.90
27413;DHT22;14871;52.702;5.230;2022-08-19T07:24:08;23.30;99.90
27413;DHT22;14871;52.702;5.230;2022-08-19T07:26:39;23.40;99.90
27413;DHT22;14871;52.702;5.230;2022-08-19T07:29:06;23.60;99.90
27413;DHT22;14871;52.702;5.230;2022-08-19T07:31:31;23.60;99.90
27413;DHT22;14871;52.702;5.230;2022-08-19T07:34:02;23.70;99.90
27413;DHT22;14871;52.702;5.230;2022-08-19T07:36:34;23.80;99.90
27413;DHT22;14871;52.702;5.230;2022-08-19T07:39:03;23.90;99.90
27413;DHT22;14871;52.702;5.230;2022-08-19T07:41:29;23.90;99.90
27413;DHT22;14871;52.702;5.230;2022-08-19T07:43:58;24.00;99.90
27413;DHT22;14871;52.702;5.230;2022-08-19T07:46:33;24.00;99.90
27413;DHT22;14871;52.702;5.230;2022-08-19T07:48:59;24.00;99.90
27413;DHT22;14871;52.702;5.230;2022-08-19T07:51:27;24.00;99.90
27413;DHT22;14871;52.702;5.230;2022-08-19T07:53:53;24.20;99.90
27413;DHT22;14871;52.702;5.230;2022-08-19T07:56:19;24.30;99.90
27413;DHT22;14871;52.702;5.230;2022-08-19T07:58:47;24.40;99.90
27413;DHT22;14871;52.702;5.230;2022-08-19T08:01:16;24.50;99.90
27413;DHT22;14871;52.702;5.230;2022-08-19T08:03:43;24.60;99.90
27413;DHT22;14871;52.702;5.230;2022-08-19T08:06:27;24.80;99.90
27413;DHT22;14871;52.702;5.230;2022-08-19T08:09:15;25.00;99.90
27413;DHT22;14871;52.702;5.230;2022-08-19T08:11:55;25.00;99.90
27413;DHT22;14871;52.702;5.230;2022-08-19T08:14:31;24.90;99.90
27413;DHT22;14871;52.702;5.230;2022-08-19T08:16:58;24.90;99.90
27413;DHT22;14871;52.702;5.230;2022-08-19T08:19:25;25.10;99.90
27413;DHT22;14871;52.702;5.230;2022-08-19T08:21:56;25.20;99.90
27413;DHT22;14871;52.702;5.230;2022-08-19T08:24:22;25.30;99.90
27413;DHT22;14871;52.702;5.230;2022-08-19T08:26:48;25.30;99.90
27413;DHT22;14871;52.702;5.230;2022-08-19T08:29:14;25.30;99.90
27413;DHT22;14871;52.702;5.230;2022-08-19T08:31:43;25.30;99.90
27413;DHT22;14871;52.702;5.230;2022-08-19T08:34:11;25.60;99.50
27413;DHT22;14871;52.702;5.230;2022-08-19T08:36:38;25.80;99.10
27413;DHT22;14871;52.702;5.230;2022-08-19T08:39:14;25.80;99.30
27413;DHT22;14871;52.702;5.230;2022-08-19T08:44:29;26.20;98.70
27413;DHT22;14871;52.702;5.230;2022-08-19T08:46:59;26.40;97.80
27413;DHT22;14871;52.702;5.230;2022-08-19T08:52:10;26.70;97.20
27413;DHT22;14871;52.702;5.230;2022-08-19T08:54:45;26.80;96.70
27413;DHT22;14871;52.702;5.230;2022-08-19T08:57:22;26.70;96.80
27413;DHT22;14871;52.702;5.230;2022-08-19T08:59:50;26.70;96.80
27413;DHT22;14871;52.702;5.230;2022-08-19T09:02:18;26.70;96.50
27413;DHT22;14871;52.702;5.230;2022-08-19T09:04:44;26.80;96.70
27413;DHT22;14871;52.702;5.230;2022-08-19T09:09:45;27.00;96.30
27413;DHT22;14871;52.702;5.230;2022-08-19T09:15:01;27.10;94.90
27413;DHT22;14871;52.702;5.230;2022-08-19T09:17:29;27.10;93.80
27413;DHT22;14871;52.702;5.230;2022-08-19T09:22:36;26.90;94.10
27413;DHT22;14871;52.702;5.230;2022-08-19T09:25:03;26.80;94.50
27413;DHT22;14871;52.702;5.230;2022-08-19T09:27:30;26.80;94.70
27413;DHT22;14871;52.702;5.230;2022-08-19T09:29:57;27.00;94.70
27413;DHT22;14871;52.702;5.230;2022-08-19T09:32:23;27.00;94.80
27413;DHT22;14871;52.702;5.230;2022-08-19T09:34:49;26.90;94.40
27413;DHT22;14871;52.702;5.230;2022-08-19T09:37:15;26.80;93.50
27413;DHT22;14871;52.702;5.230;2022-08-19T09:39:41;26.60;94.10
27413;DHT22;14871;52.702;5.230;2022-08-19T09:42:08;26.80;94.10
27413;DHT22;14871;52.702;5.230;2022-08-19T09:44:40;26.90;94.00
27413;DHT22;14871;52.702;5.230;2022-08-19T09:47:06;27.10;93.40
27413;DHT22;14871;52.702;5.230;2022-08-19T09:49:32;27.00;93.20
27413;DHT22;14871;52.702;5.230;2022-08-19T09:51:59;27.10;92.90
27413;DHT22;14871;52.702;5.230;2022-08-19T09:54:25;26.90;93.10
27413;DHT22;14871;52.702;5.230;2022-08-19T09:56:52;27.10;93.00
27413;DHT22;14871;52.702;5.230;2022-08-19T09:59:17;27.30;93.20
27413;DHT22;14871;52.702;5.230;2022-08-19T10:01:43;27.50;92.60
27413;DHT22;14871;52.702;5.230;2022-08-19T10:04:09;27.60;92.40
27413;DHT22;14871;52.702;5.230;2022-08-19T10:06:37;27.70;92.10
27413;DHT22;14871;52.702;5.230;2022-08-19T10:09:04;27.50;92.50
27413;DHT22;14871;52.702;5.230;2022-08-19T10:11:32;27.40;92.70
27413;DHT22;14871;52.702;5.230;2022-08-19T10:13:57;27.50;92.80
27413;DHT22;14871;52.702;5.230;2022-08-19T10:16:25;27.60;92.90
27413;DHT22;14871;52.702;5.230;2022-08-19T10:18:51;27.80;92.20
27413;DHT22;14871;52.702;5.230;2022-08-19T10:21:23;28.00;91.40
27413;DHT22;14871;52.702;5.230;2022-08-19T10:23:52;28.00;91.20
27413;DHT22;14871;52.702;5.230;2022-08-19T10:26:21;27.90;91.30
27413;DHT22;14871;52.702;5.230;2022-08-19T10:28:47;27.80;91.50
27413;DHT22;14871;52.702;5.230;2022-08-19T10:31:18;27.80;91.50
27413;DHT22;14871;52.702;5.230;2022-08-19T10:33:46;27.80;91.50
27413;DHT22;14871;52.702;5.230;2022-08-19T10:36:19;27.90;91.60
27413;DHT22;14871;52.702;5.230;2022-08-19T10:38:47;28.10;90.90
27413;DHT22;14871;52.702;5.230;2022-08-19T10:41:22;28.10;91.20
27413;DHT22;14871;52.702;5.230;2022-08-19T10:43:51;28.20;90.80
27413;DHT22;14871;52.702;5.230;2022-08-19T10:46:18;28.10;90.90
27413;DHT22;14871;52.702;5.230;2022-08-19T10:48:44;27.90;90.90
27413;DHT22;14871;52.702;5.230;2022-08-19T10:51:11;27.80;91.10
27413;DHT22;14871;52.702;5.230;2022-08-19T10:53:56;27.60;91.50
27413;DHT22;14871;52.702;5.230;2022-08-19T10:56:23;27.70;91.40
27413;DHT22;14871;52.702;5.230;2022-08-19T10:59:07;27.50;92.00
27413;DHT22;14871;52.702;5.230;2022-08-19T11:01:34;27.30;92.20
27413;DHT22;14871;52.702;5.230;2022-08-19T11:04:02;27.40;92.10
27413;DHT22;14871;52.702;5.230;2022-08-19T11:06:28;27.50;91.20
27413;DHT22;14871;52.702;5.230;2022-08-19T11:08:55;27.40;91.20
27413;DHT22;14871;52.702;5.230;2022-08-19T11:11:21;27.30;92.30
27413;DHT22;14871;52.702;5.230;2022-08-19T11:13:47;27.20;93.00
27413;DHT22;14871;52.702;5.230;2022-08-19T11:16:21;27.10;93.20
27413;DHT22;14871;52.702;5.230;2022-08-19T11:18:50;27.00;93.40
27413;DHT22;14871;52.702;5.230;2022-08-19T11:21:23;27.10;93.00
27413;DHT22;14871;52.702;5.230;2022-08-19T11:23:51;27.00;93.30
27413;DHT22;14871;52.702;5.230;2022-08-19T11:26:18;27.00;93.30
27413;DHT22;14871;52.702;5.230;2022-08-19T11:28:44;27.00;93.40
27413;DHT22;14871;52.702;5.230;2022-08-19T11:31:16;27.00;93.40
27413;DHT22;14871;52.702;5.230;2022-08-19T11:33:42;27.10;93.20
27413;DHT22;14871;52.702;5.230;2022-08-19T11:36:08;27.10;92.80
27413;DHT22;14871;52.702;5.230;2022-08-19T11:38:35;27.10;92.70
27413;DHT22;14871;52.702;5.230;2022-08-19T11:41:05;27.00;92.60
27413;DHT22;14871;52.702;5.230;2022-08-19T11:43:31;26.90;92.90
27413;DHT22;14871;52.702;5.230;2022-08-19T11:45:57;26.80;93.40
27413;DHT22;14871;52.702;5.230;2022-08-19T11:48:24;26.90;93.30
27413;DHT22;14871;52.702;5.230;2022-08-19T11:50:53;27.00;92.80
27413;DHT22;14871;52.702;5.230;2022-08-19T11:53:22;27.00;92.70
27413;DHT22;14871;52.702;5.230;2022-08-19T11:55:48;27.00;92.80
27413;DHT22;14871;52.702;5.230;2022-08-19T11:58:15;27.00;92.40
27413;DHT22;14871;52.702;5.230;2022-08-19T12:00:42;27.00;92.20
27413;DHT22;14871;52.702;5.230;2022-08-19T12:03:11;26.90;92.60
27413;DHT22;14871;52.702;5.230;2022-08-19T12:05:38;26.80;93.00
27413;DHT22;14871;52.702;5.230;2022-08-19T12:08:04;26.90;93.00
27413;DHT22;14871;52.702;5.230;2022-08-19T12:10:29;27.00;93.00
27413;DHT22;14871;52.702;5.230;2022-08-19T12:12:55;27.10;92.90
27413;DHT22;14871;52.702;5.230;2022-08-19T12:15:21;27.00;93.00
27413;DHT22;14871;52.702;5.230;2022-08-19T12:17:46;27.20;92.90
27413;DHT22;14871;52.702;5.230;2022-08-19T12:20:12;27.40;92.90
27413;DHT22;14871;52.702;5.230;2022-08-19T12:22:40;27.40;92.90
27413;DHT22;14871;52.702;5.230;2022-08-19T12:25:10;27.40;92.70
27413;DHT22;14871;52.702;5.230;2022-08-19T12:27:36;27.40;92.60
27413;DHT22;14871;52.702;5.230;2022-08-19T12:30:03;27.50;92.70
27413;DHT22;14871;52.702;5.230;2022-08-19T12:32:29;27.60;92.60
27413;DHT22;14871;52.702;5.230;2022-08-19T12:34:55;27.60;92.80
27413;DHT22;14871;52.702;5.230;2022-08-19T12:37:21;27.60;92.60
27413;DHT22;14871;52.702;5.230;2022-08-19T12:39:46;27.60;92.30
27413;DHT22;14871;52.702;5.230;2022-08-19T12:42:13;27.60;92.20
27413;DHT22;14871;52.702;5.230;2022-08-19T12:44:40;27.50;91.80
27413;DHT22;14871;52.702;5.230;2022-08-19T12:47:08;27.50;91.60
27413;DHT22;14871;52.702;5.230;2022-08-19T12:49:34;27.70;91.80
27413;DHT22;14871;52.702;5.230;2022-08-19T12:52:03;28.00;91.30
27413;DHT22;14871;52.702;5.230;2022-08-19T12:54:29;28.30;90.50
27413;DHT22;14871;52.702;5.230;2022-08-19T12:56:56;28.30;89.80
27413;DHT22;14871;52.702;5.230;2022-08-19T12:59:22;28.50;89.20
27413;DHT22;14871;52.702;5.230;2022-08-19T13:01:48;28.70;88.20
27413;DHT22;14871;52.702;5.230;2022-08-19T13:04:14;28.60;88.20
27413;DHT22;14871;52.702;5.230;2022-08-19T13:06:40;28.60;88.40
27413;DHT22;14871;52.702;5.230;2022-08-19T13:09:06;28.60;89.00
27413;DHT22;14871;52.702;5.230;2022-08-19T13:11:32;28.70;88.70
27413;DHT22;14871;52.702;5.230;2022-08-19T13:13:59;28.80;89.10
27413;DHT22;14871;52.702;5.230;2022-08-19T13:16:25;28.80;87.70
27413;DHT22;14871;52.702;5.230;2022-08-19T13:18:53;28.90;87.30
27413;DHT22;14871;52.702;5.230;2022-08-19T13:21:21;28.80;87.70
27413;DHT22;14871;52.702;5.230;2022-08-19T13:23:48;28.90;88.80
27413;DHT22;14871;52.702;5.230;2022-08-19T13:26:14;29.10;88.00
27413;DHT22;14871;52.702;5.230;2022-08-19T13:28:41;29.10;88.60
27413;DHT22;14871;52.702;5.230;2022-08-19T13:31:27;29.20;88.10
27413;DHT22;14871;52.702;5.230;2022-08-19T13:34:12;29.30;87.30
27413;DHT22;14871;52.702;5.230;2022-08-19T13:36:39;29.30;86.30
27413;DHT22;14871;52.702;5.230;2022-08-19T13:39:06;29.20;87.00
27413;DHT22;14871;52.702;5.230;2022-08-19T13:41:33;29.30;85.90
27413;DHT22;14871;52.702;5.230;2022-08-19T13:44:00;29.40;86.90
27413;DHT22;14871;52.702;5.230;2022-08-19T13:46:27;29.50;86.60
27413;DHT22;14871;52.702;5.230;2022-08-19T13:48:55;29.60;86.80
27413;DHT22;14871;52.702;5.230;2022-08-19T13:51:22;29.60;86.10
27413;DHT22;14871;52.702;5.230;2022-08-19T13:53:48;29.60;84.70
27413;DHT22;14871;52.702;5.230;2022-08-19T13:56:16;29.60;84.50
27413;DHT22;14871;52.702;5.230;2022-08-19T13:58:42;29.50;85.70
27413;DHT22;14871;52.702;5.230;2022-08-19T14:01:09;29.40;86.70
27413;DHT22;14871;52.702;5.230;2022-08-19T14:03:35;29.50;85.90
27413;DHT22;14871;52.702;5.230;2022-08-19T14:06:01;29.50;85.70
27413;DHT22;14871;52.702;5.230;2022-08-19T14:08:27;29.60;86.20
27413;DHT22;14871;52.702;5.230;2022-08-19T14:10:54;29.50;86.90
27413;DHT22;14871;52.702;5.230;2022-08-19T14:13:22;29.70;86.20
27413;DHT22;14871;52.702;5.230;2022-08-19T14:15:48;30.00;85.70
27413;DHT22;14871;52.702;5.230;2022-08-19T14:18:15;30.10;84.20
27413;DHT22;14871;52.702;5.230;2022-08-19T14:20:41;30.10;84.00
27413;DHT22;14871;52.702;5.230;2022-08-19T14:23:06;30.20;82.90
27413;DHT22;14871;52.702;5.230;2022-08-19T14:25:33;29.90;83.90
27413;DHT22;14871;52.702;5.230;2022-08-19T14:27:59;29.90;84.20
27413;DHT22;14871;52.702;5.230;2022-08-19T14:30:28;29.90;84.80
27413;DHT22;14871;52.702;5.230;2022-08-19T14:32:55;29.80;84.60
27413;DHT22;14871;52.702;5.230;2022-08-19T14:35:21;29.90;84.60
27413;DHT22;14871;52.702;5.230;2022-08-19T14:37:48;29.90;82.90
27413;DHT22;14871;52.702;5.230;2022-08-19T14:40:16;29.60;83.50
27413;DHT22;14871;52.702;5.230;2022-08-19T14:42:43;29.20;84.70
27413;DHT22;14871;52.702;5.230;2022-08-19T14:45:10;29.20;84.70
27413;DHT22;14871;52.702;5.230;2022-08-19T14:47:36;29.10;85.00
27413;DHT22;14871;52.702;5.230;2022-08-19T14:50:05;29.10;84.90
27413;DHT22;14871;52.702;5.230;2022-08-19T14:52:32;29.20;84.60
27413;DHT22;14871;52.702;5.230;2022-08-19T14:54:57;29.10;84.90
27413;DHT22;14871;52.702;5.230;2022-08-19T14:57:23;29.10;84.70
27413;DHT22;14871;52.702;5.230;2022-08-19T14:59:48;29.00;85.30
27413;DHT22;14871;52.702;5.230;2022-08-19T15:02:14;28.90;86.20
27413;DHT22;14871;52.702;5.230;2022-08-19T15:04:40;29.00;86.60
27413;DHT22;14871;52.702;5.230;2022-08-19T15:07:06;29.10;86.60
27413;DHT22;14871;52.702;5.230;2022-08-19T15:09:32;29.30;86.30
27413;DHT22;14871;52.702;5.230;2022-08-19T15:11:59;29.60;85.10
27413;DHT22;14871;52.702;5.230;2022-08-19T15:14:26;29.60;83.10
27413;DHT22;14871;52.702;5.230;2022-08-19T15:16:52;29.60;83.00
27413;DHT22;14871;52.702;5.230;2022-08-19T15:19:18;29.40;84.30
27413;DHT22;14871;52.702;5.230;2022-08-19T15:21:44;29.30;84.60
27413;DHT22;14871;52.702;5.230;2022-08-19T15:24:09;29.40;85.40
27413;DHT22;14871;52.702;5.230;2022-08-19T15:26:35;29.30;85.20
27413;DHT22;14871;52.702;5.230;2022-08-19T15:29:02;29.20;85.30
27413;DHT22;14871;52.702;5.230;2022-08-19T15:31:28;29.20;84.90
27413;DHT22;14871;52.702;5.230;2022-08-19T15:33:57;29.10;84.30
27413;DHT22;14871;52.702;5.230;2022-08-19T15:36:23;29.20;84.00
27413;DHT22;14871;52.702;5.230;2022-08-19T15:38:50;29.20;85.90
27413;DHT22;14871;52.702;5.230;2022-08-19T15:41:20;29.40;85.70
27413;DHT22;14871;52.702;5.230;2022-08-19T15:43:54;29.50;85.00
27413;DHT22;14871;52.702;5.230;2022-08-19T15:46:23;29.50;84.50
27413;DHT22;14871;52.702;5.230;2022-08-19T15:48:50;29.40;84.50
27413;DHT22;14871;52.702;5.230;2022-08-19T15:51:16;29.50;83.20